NC96 weather

Betsy Johnson Memorial Hospital Heliport
Dunn, North Carolina, United States

Public forecast

Using degrees Fahrenheit for public forecast. Weather courtesy of forecast.io.

Closest aviation weather report (METAR) to Betsy Johnson Memorial Hospital Heliport

Closest report is Harnett Regional Jetport Airport, 6.2 nm (11.5 km) NW. Retrieved 2020/02/20 04:35 UTC (0 seconds ago):

KHRJ 200435Z AUTO 00000KT 10SM OVC075 07/05 A3040 RMK AO2 T00660045

Closest aviation forecast (TAF) to Betsy Johnson Memorial Hospital Heliport

Closest forecast is Simmons Army Air Field, 18.3 nm (34.0 km) SW. Retrieved 2020-02-20 02:24 UTC (2 hours ago):

TAF KFBG 200200Z 2002/2108 04006KT 9999 BKN050 OVC080 520503 QNH3035INS BECMG 2014/2015 06012G18KT 9000 -RA BKN012 OVC030 620303 520503 QNH3038INS BECMG 2016/2017 05010G15KT 9000 -RA OVC005 620208 520503 QNH3031INS BECMG 2018/2019 02010G20KT 9000 -RASN OVC004 620108 520503 QNH3030INS BECMG 2020/2021 02015G25KT 4800 -SN OVC005 620059 520503 QNH3016INS TEMPO 2021/2108 0800 SN TX10/2006Z TN00/2020Z